sensor_id;sensor_type;location;lat;lon;timestamp;P1;durP1;ratioP1;P2;durP2;ratioP2
14592;SDS011;7383;52.354;9.756;2023-04-24T01:21:58;0.80;;;0.80;;
14592;SDS011;7383;52.354;9.756;2023-04-24T01:24:32;0.60;;;0.60;;
14592;SDS011;7383;52.354;9.756;2023-04-24T01:26:58;1.00;;;0.85;;
14592;SDS011;7383;52.354;9.756;2023-04-24T01:29:26;1.05;;;0.70;;
14592;SDS011;7383;52.354;9.756;2023-04-24T01:31:53;0.95;;;0.52;;
14592;SDS011;7383;52.354;9.756;2023-04-24T01:34:24;0.60;;;0.60;;
14592;SDS011;7383;52.354;9.756;2023-04-24T01:36:51;0.45;;;0.45;;
14592;SDS011;7383;52.354;9.756;2023-04-24T01:39:19;0.65;;;0.60;;
14592;SDS011;7383;52.354;9.756;2023-04-24T01:41:49;3.20;;;0.80;;
14592;SDS011;7383;52.354;9.756;2023-04-24T01:44:17;0.60;;;0.60;;
14592;SDS011;7383;52.354;9.756;2023-04-24T01:46:43;0.65;;;0.65;;
14592;SDS011;7383;52.354;9.756;2023-04-24T01:49:10;0.50;;;0.50;;
14592;SDS011;7383;52.354;9.756;2023-04-24T01:51:37;0.57;;;0.57;;
14592;SDS011;7383;52.354;9.756;2023-04-24T01:54:04;0.50;;;0.50;;
14592;SDS011;7383;52.354;9.756;2023-04-24T01:56:31;0.52;;;0.52;;
14592;SDS011;7383;52.354;9.756;2023-04-24T01:59:02;0.50;;;0.50;;
14592;SDS011;7383;52.354;9.756;2023-04-24T02:01:33;0.45;;;0.45;;
14592;SDS011;7383;52.354;9.756;2023-04-24T02:04:02;0.40;;;0.40;;
14592;SDS011;7383;52.354;9.756;2023-04-24T02:06:29;0.30;;;0.30;;
14592;SDS011;7383;52.354;9.756;2023-04-24T02:08:56;0.38;;;0.38;;
14592;SDS011;7383;52.354;9.756;2023-04-24T02:11:23;0.50;;;0.50;;
14592;SDS011;7383;52.354;9.756;2023-04-24T02:13:50;0.30;;;0.30;;
14592;SDS011;7383;52.354;9.756;2023-04-24T02:16:19;0.40;;;0.40;;
14592;SDS011;7383;52.354;9.756;2023-04-24T02:18:49;0.80;;;0.70;;
14592;SDS011;7383;52.354;9.756;2023-04-24T02:21:15;0.50;;;0.50;;
14592;SDS011;7383;52.354;9.756;2023-04-24T02:23:44;0.50;;;0.50;;
14592;SDS011;7383;52.354;9.756;2023-04-24T02:26:12;0.50;;;0.50;;
14592;SDS011;7383;52.354;9.756;2023-04-24T02:28:42;0.55;;;0.55;;
14592;SDS011;7383;52.354;9.756;2023-04-24T02:31:09;0.60;;;0.60;;
14592;SDS011;7383;52.354;9.756;2023-04-24T02:33:38;0.50;;;0.50;;
14592;SDS011;7383;52.354;9.756;2023-04-24T02:36:04;0.60;;;0.60;;
14592;SDS011;7383;52.354;9.756;2023-04-24T02:38:32;0.52;;;0.52;;
14592;SDS011;7383;52.354;9.756;2023-04-24T02:41:00;0.70;;;0.70;;
14592;SDS011;7383;52.354;9.756;2023-04-24T02:43:30;0.63;;;0.63;;
14592;SDS011;7383;52.354;9.756;2023-04-24T02:45:56;0.60;;;0.60;;
14592;SDS011;7383;52.354;9.756;2023-04-24T02:48:23;0.80;;;0.70;;
14592;SDS011;7383;52.354;9.756;2023-04-24T02:50:54;0.40;;;0.40;;
14592;SDS011;7383;52.354;9.756;2023-04-24T02:53:22;0.50;;;0.50;;
14592;SDS011;7383;52.354;9.756;2023-04-24T02:55:49;0.60;;;0.60;;
14592;SDS011;7383;52.354;9.756;2023-04-24T02:58:16;0.60;;;0.60;;
14592;SDS011;7383;52.354;9.756;2023-04-24T03:00:46;0.70;;;0.70;;
14592;SDS011;7383;52.354;9.756;2023-04-24T03:03:12;0.47;;;0.47;;
14592;SDS011;7383;52.354;9.756;2023-04-24T03:05:42;0.65;;;0.65;;
14592;SDS011;7383;52.354;9.756;2023-04-24T03:08:10;0.45;;;0.45;;
14592;SDS011;7383;52.354;9.756;2023-04-24T03:10:36;1.00;;;0.70;;
14592;SDS011;7383;52.354;9.756;2023-04-24T03:13:03;0.57;;;0.57;;
14592;SDS011;7383;52.354;9.756;2023-04-24T03:15:29;0.50;;;0.50;;
14592;SDS011;7383;52.354;9.756;2023-04-24T03:17:56;0.52;;;0.52;;
14592;SDS011;7383;52.354;9.756;2023-04-24T03:20:26;0.57;;;0.50;;
14592;SDS011;7383;52.354;9.756;2023-04-24T03:22:53;0.50;;;0.50;;
14592;SDS011;7383;52.354;9.756;2023-04-24T03:25:23;0.43;;;0.43;;
14592;SDS011;7383;52.354;9.756;2023-04-24T03:27:50;0.90;;;0.40;;
14592;SDS011;7383;52.354;9.756;2023-04-24T03:30:17;0.40;;;0.40;;
14592;SDS011;7383;52.354;9.756;2023-04-24T03:32:44;0.28;;;0.28;;
14592;SDS011;7383;52.354;9.756;2023-04-24T03:35:10;0.40;;;0.40;;
14592;SDS011;7383;52.354;9.756;2023-04-24T03:37:37;0.40;;;0.40;;
14592;SDS011;7383;52.354;9.756;2023-04-24T03:40:04;0.50;;;0.50;;
14592;SDS011;7383;52.354;9.756;2023-04-24T03:42:34;0.47;;;0.47;;
14592;SDS011;7383;52.354;9.756;2023-04-24T03:45:01;0.50;;;0.50;;
14592;SDS011;7383;52.354;9.756;2023-04-24T03:47:31;0.50;;;0.50;;
14592;SDS011;7383;52.354;9.756;2023-04-24T03:49:58;0.45;;;0.45;;
14592;SDS011;7383;52.354;9.756;2023-04-24T03:52:24;0.40;;;0.40;;
14592;SDS011;7383;52.354;9.756;2023-04-24T03:54:51;0.50;;;0.50;;
14592;SDS011;7383;52.354;9.756;2023-04-24T03:57:18;1.08;;;0.50;;
14592;SDS011;7383;52.354;9.756;2023-04-24T03:59:46;3.22;;;2.42;;
14592;SDS011;7383;52.354;9.756;2023-04-24T04:02:12;1.05;;;0.90;;
14592;SDS011;7383;52.354;9.756;2023-04-24T04:04:40;0.70;;;0.70;;
14592;SDS011;7383;52.354;9.756;2023-04-24T04:07:07;0.90;;;0.77;;
14592;SDS011;7383;52.354;9.756;2023-04-24T04:09:33;0.50;;;0.50;;
14592;SDS011;7383;52.354;9.756;2023-04-24T04:12:00;0.50;;;0.50;;
14592;SDS011;7383;52.354;9.756;2023-04-24T04:14:27;0.68;;;0.68;;
14592;SDS011;7383;52.354;9.756;2023-04-24T04:16:55;0.75;;;0.70;;
14592;SDS011;7383;52.354;9.756;2023-04-24T04:19:22;1.55;;;0.95;;
14592;SDS011;7383;52.354;9.756;2023-04-24T04:21:49;0.68;;;0.68;;
14592;SDS011;7383;52.354;9.756;2023-04-24T04:24:18;0.50;;;0.50;;
14592;SDS011;7383;52.354;9.756;2023-04-24T04:26:47;0.70;;;0.70;;
14592;SDS011;7383;52.354;9.756;2023-04-24T04:29:16;0.60;;;0.60;;
14592;SDS011;7383;52.354;9.756;2023-04-24T04:31:43;0.40;;;0.40;;
14592;SDS011;7383;52.354;9.756;2023-04-24T04:34:11;0.73;;;0.65;;
14592;SDS011;7383;52.354;9.756;2023-04-24T04:36:39;0.43;;;0.43;;
14592;SDS011;7383;52.354;9.756;2023-04-24T04:39:05;0.43;;;0.43;;
14592;SDS011;7383;52.354;9.756;2023-04-24T04:41:32;0.50;;;0.50;;
14592;SDS011;7383;52.354;9.756;2023-04-24T04:44:01;0.60;;;0.60;;
14592;SDS011;7383;52.354;9.756;2023-04-24T04:46:29;0.60;;;0.60;;
14592;SDS011;7383;52.354;9.756;2023-04-24T04:48:57;0.57;;;0.43;;
14592;SDS011;7383;52.354;9.756;2023-04-24T04:51:25;1.80;;;1.10;;
14592;SDS011;7383;52.354;9.756;2023-04-24T04:53:52;0.70;;;0.70;;
14592;SDS011;7383;52.354;9.756;2023-04-24T04:56:19;0.80;;;0.80;;
14592;SDS011;7383;52.354;9.756;2023-04-24T04:58:48;0.68;;;0.68;;
14592;SDS011;7383;52.354;9.756;2023-04-24T05:01:15;0.70;;;0.70;;
14592;SDS011;7383;52.354;9.756;2023-04-24T05:03:43;0.52;;;0.52;;
14592;SDS011;7383;52.354;9.756;2023-04-24T05:06:10;0.43;;;0.43;;
14592;SDS011;7383;52.354;9.756;2023-04-24T05:08:40;0.52;;;0.52;;
14592;SDS011;7383;52.354;9.756;2023-04-24T05:11:09;0.47;;;0.47;;
14592;SDS011;7383;52.354;9.756;2023-04-24T05:13:37;0.32;;;0.32;;
14592;SDS011;7383;52.354;9.756;2023-04-24T05:16:03;0.40;;;0.40;;
14592;SDS011;7383;52.354;9.756;2023-04-24T05:18:31;0.57;;;0.57;;
14592;SDS011;7383;52.354;9.756;2023-04-24T05:20:58;0.60;;;0.60;;
14592;SDS011;7383;52.354;9.756;2023-04-24T05:23:26;0.70;;;0.40;;
14592;SDS011;7383;52.354;9.756;2023-04-24T05:25:55;0.90;;;0.50;;
14592;SDS011;7383;52.354;9.756;2023-04-24T05:28:22;0.63;;;0.63;;
14592;SDS011;7383;52.354;9.756;2023-04-24T05:30:55;0.60;;;0.60;;
14592;SDS011;7383;52.354;9.756;2023-04-24T05:33:24;0.73;;;0.73;;
14592;SDS011;7383;52.354;9.756;2023-04-24T05:35:51;0.95;;;0.60;;
14592;SDS011;7383;52.354;9.756;2023-04-24T05:38:17;0.60;;;0.60;;
14592;SDS011;7383;52.354;9.756;2023-04-24T05:40:44;0.98;;;0.80;;
14592;SDS011;7383;52.354;9.756;2023-04-24T05:43:13;0.57;;;0.57;;
14592;SDS011;7383;52.354;9.756;2023-04-24T05:45:43;0.75;;;0.75;;
14592;SDS011;7383;52.354;9.756;2023-04-24T05:48:09;0.85;;;0.70;;
14592;SDS011;7383;52.354;9.756;2023-04-24T05:50:36;0.80;;;0.80;;
14592;SDS011;7383;52.354;9.756;2023-04-24T05:53:03;0.75;;;0.75;;
14592;SDS011;7383;52.354;9.756;2023-04-24T05:55:32;0.85;;;0.85;;
14592;SDS011;7383;52.354;9.756;2023-04-24T05:58:01;0.82;;;0.82;;
14592;SDS011;7383;52.354;9.756;2023-04-24T06:00:30;0.75;;;0.70;;
14592;SDS011;7383;52.354;9.756;2023-04-24T06:02:59;1.52;;;1.30;;
14592;SDS011;7383;52.354;9.756;2023-04-24T06:05:26;1.02;;;1.02;;
14592;SDS011;7383;52.354;9.756;2023-04-24T06:07:52;1.00;;;1.00;;
14592;SDS011;7383;52.354;9.756;2023-04-24T06:10:19;1.30;;;1.20;;
14592;SDS011;7383;52.354;9.756;2023-04-24T06:12:45;0.80;;;0.80;;
14592;SDS011;7383;52.354;9.756;2023-04-24T06:15:12;0.80;;;0.80;;
14592;SDS011;7383;52.354;9.756;2023-04-24T06:17:40;1.02;;;0.85;;
14592;SDS011;7383;52.354;9.756;2023-04-24T06:20:07;0.90;;;0.90;;
14592;SDS011;7383;52.354;9.756;2023-04-24T06:22:36;0.80;;;0.80;;
14592;SDS011;7383;52.354;9.756;2023-04-24T06:25:05;0.82;;;0.82;;
14592;SDS011;7383;52.354;9.756;2023-04-24T06:27:32;0.80;;;0.80;;
14592;SDS011;7383;52.354;9.756;2023-04-24T06:29:58;0.88;;;0.80;;
14592;SDS011;7383;52.354;9.756;2023-04-24T06:32:25;0.98;;;0.98;;
14592;SDS011;7383;52.354;9.756;2023-04-24T06:34:55;0.80;;;0.80;;
14592;SDS011;7383;52.354;9.756;2023-04-24T06:37:21;1.10;;;1.10;;
14592;SDS011;7383;52.354;9.756;2023-04-24T06:39:50;1.08;;;1.08;;
14592;SDS011;7383;52.354;9.756;2023-04-24T06:42:16;1.10;;;1.10;;
14592;SDS011;7383;52.354;9.756;2023-04-24T06:44:45;1.10;;;1.10;;
14592;SDS011;7383;52.354;9.756;2023-04-24T06:47:12;1.60;;;1.50;;
14592;SDS011;7383;52.354;9.756;2023-04-24T06:49:40;1.77;;;1.70;;
14592;SDS011;7383;52.354;9.756;2023-04-24T06:52:09;1.67;;;1.67;;
14592;SDS011;7383;52.354;9.756;2023-04-24T06:54:35;1.60;;;1.60;;
14592;SDS011;7383;52.354;9.756;2023-04-24T06:57:02;2.13;;;2.03;;
14592;SDS011;7383;52.354;9.756;2023-04-24T06:59:29;2.17;;;1.98;;
14592;SDS011;7383;52.354;9.756;2023-04-24T07:01:57;2.10;;;2.00;;
14592;SDS011;7383;52.354;9.756;2023-04-24T07:04:23;2.33;;;2.22;;
14592;SDS011;7383;52.354;9.756;2023-04-24T07:22:22;3.03;;;2.80;;
14592;SDS011;7383;52.354;9.756;2023-04-24T07:24:49;2.90;;;2.70;;
14592;SDS011;7383;52.354;9.756;2023-04-24T07:27:16;3.10;;;2.90;;
14592;SDS011;7383;52.354;9.756;2023-04-24T07:29:42;3.55;;;3.35;;
14592;SDS011;7383;52.354;9.756;2023-04-24T07:32:09;3.70;;;3.40;;
14592;SDS011;7383;52.354;9.756;2023-04-24T07:34:35;3.40;;;3.20;;
14592;SDS011;7383;52.354;9.756;2023-04-24T07:37:03;3.22;;;3.03;;
14592;SDS011;7383;52.354;9.756;2023-04-24T07:39:33;2.95;;;2.75;;
14592;SDS011;7383;52.354;9.756;2023-04-24T07:42:03;2.95;;;2.75;;
14592;SDS011;7383;52.354;9.756;2023-04-24T07:44:38;3.20;;;3.00;;
14592;SDS011;7383;52.354;9.756;2023-04-24T07:47:25;2.88;;;2.67;;
14592;SDS011;7383;52.354;9.756;2023-04-24T07:50:13;3.22;;;3.03;;
14592;SDS011;7383;52.354;9.756;2023-04-24T07:52:45;2.97;;;2.78;;
14592;SDS011;7383;52.354;9.756;2023-04-24T07:55:15;3.60;;;3.40;;
14592;SDS011;7383;52.354;9.756;2023-04-24T07:57:43;3.58;;;3.38;;
14592;SDS011;7383;52.354;9.756;2023-04-24T08:00:10;4.10;;;3.80;;
14592;SDS011;7383;52.354;9.756;2023-04-24T08:02:37;4.80;;;4.40;;
14592;SDS011;7383;52.354;9.756;2023-04-24T08:05:04;3.90;;;3.60;;
14592;SDS011;7383;52.354;9.756;2023-04-24T08:07:35;3.35;;;3.15;;
14592;SDS011;7383;52.354;9.756;2023-04-24T08:10:02;4.25;;;3.83;;
14592;SDS011;7383;52.354;9.756;2023-04-24T08:12:35;4.35;;;3.95;;
14592;SDS011;7383;52.354;9.756;2023-04-24T08:15:21;3.67;;;3.45;;
14592;SDS011;7383;52.354;9.756;2023-04-24T08:17:48;3.92;;;3.60;;
14592;SDS011;7383;52.354;9.756;2023-04-24T08:20:15;3.78;;;3.50;;
14592;SDS011;7383;52.354;9.756;2023-04-24T08:22:42;4.82;;;4.43;;
14592;SDS011;7383;52.354;9.756;2023-04-24T08:25:10;4.70;;;4.40;;
14592;SDS011;7383;52.354;9.756;2023-04-24T08:27:38;5.57;;;5.07;;
14592;SDS011;7383;52.354;9.756;2023-04-24T08:30:05;4.38;;;3.97;;
14592;SDS011;7383;52.354;9.756;2023-04-24T08:32:33;4.15;;;3.85;;
14592;SDS011;7383;52.354;9.756;2023-04-24T08:35:02;4.30;;;4.03;;
14592;SDS011;7383;52.354;9.756;2023-04-24T08:37:29;5.40;;;5.00;;
14592;SDS011;7383;52.354;9.756;2023-04-24T08:39:55;4.10;;;3.80;;
14592;SDS011;7383;52.354;9.756;2023-04-24T08:42:22;4.82;;;4.20;;
14592;SDS011;7383;52.354;9.756;2023-04-24T08:44:50;4.13;;;3.83;;
14592;SDS011;7383;52.354;9.756;2023-04-24T08:47:17;3.88;;;3.60;;
14592;SDS011;7383;52.354;9.756;2023-04-24T08:49:46;4.20;;;3.90;;
14592;SDS011;7383;52.354;9.756;2023-04-24T08:52:14;5.30;;;4.90;;
14592;SDS011;7383;52.354;9.756;2023-04-24T08:54:41;3.50;;;3.30;;
14592;SDS011;7383;52.354;9.756;2023-04-24T08:57:10;3.30;;;3.00;;
14592;SDS011;7383;52.354;9.756;2023-04-24T08:59:39;3.05;;;2.85;;
14592;SDS011;7383;52.354;9.756;2023-04-24T09:02:08;3.47;;;3.28;;
14592;SDS011;7383;52.354;9.756;2023-04-24T09:04:36;3.08;;;2.83;;
14592;SDS011;7383;52.354;9.756;2023-04-24T09:07:04;2.90;;;2.70;;
14592;SDS011;7383;52.354;9.756;2023-04-24T09:09:33;3.13;;;2.75;;
14592;SDS011;7383;52.354;9.756;2023-04-24T09:12:01;2.50;;;2.40;;
14592;SDS011;7383;52.354;9.756;2023-04-24T09:14:28;1.90;;;1.80;;
14592;SDS011;7383;52.354;9.756;2023-04-24T09:16:56;2.47;;;2.28;;
14592;SDS011;7383;52.354;9.756;2023-04-24T09:19:24;2.00;;;1.90;;
14592;SDS011;7383;52.354;9.756;2023-04-24T09:21:51;2.40;;;2.20;;
14592;SDS011;7383;52.354;9.756;2023-04-24T09:24:19;1.83;;;1.73;;
14592;SDS011;7383;52.354;9.756;2023-04-24T09:26:48;1.90;;;1.80;;
14592;SDS011;7383;52.354;9.756;2023-04-24T09:29:15;2.20;;;2.10;;
14592;SDS011;7383;52.354;9.756;2023-04-24T09:31:43;2.30;;;2.20;;
14592;SDS011;7383;52.354;9.756;2023-04-24T09:34:11;2.50;;;2.40;;
14592;SDS011;7383;52.354;9.756;2023-04-24T09:37:01;2.22;;;2.13;;
14592;SDS011;7383;52.354;9.756;2023-04-24T09:39:55;2.58;;;2.45;;
14592;SDS011;7383;52.354;9.756;2023-04-24T09:42:45;2.72;;;2.55;;
14592;SDS011;7383;52.354;9.756;2023-04-24T09:45:22;2.78;;;2.67;;
14592;SDS011;7383;52.354;9.756;2023-04-24T09:47:54;2.42;;;2.33;;
14592;SDS011;7383;52.354;9.756;2023-04-24T09:50:23;2.67;;;2.47;;
14592;SDS011;7383;52.354;9.756;2023-04-24T09:53:04;3.10;;;2.90;;
14592;SDS011;7383;52.354;9.756;2023-04-24T09:55:33;2.53;;;2.42;;
14592;SDS011;7383;52.354;9.756;2023-04-24T09:58:38;2.20;;;2.10;;
14592;SDS011;7383;52.354;9.756;2023-04-24T10:01:08;2.80;;;2.60;;
14592;SDS011;7383;52.354;9.756;2023-04-24T10:04:17;3.33;;;3.13;;
14592;SDS011;7383;52.354;9.756;2023-04-24T10:06:54;2.70;;;2.60;;
14592;SDS011;7383;52.354;9.756;2023-04-24T10:09:36;2.40;;;2.30;;
14592;SDS011;7383;52.354;9.756;2023-04-24T10:12:19;2.42;;;2.22;;
14592;SDS011;7383;52.354;9.756;2023-04-24T10:14:52;2.05;;;1.95;;
14592;SDS011;7383;52.354;9.756;2023-04-24T10:17:31;2.30;;;2.10;;
14592;SDS011;7383;52.354;9.756;2023-04-24T10:20:02;2.33;;;2.20;;
14592;SDS011;7383;52.354;9.756;2023-04-24T10:22:45;2.42;;;2.22;;
14592;SDS011;7383;52.354;9.756;2023-04-24T10:25:40;2.20;;;2.10;;
14592;SDS011;7383;52.354;9.756;2023-04-24T10:28:08;2.20;;;2.10;;
14592;SDS011;7383;52.354;9.756;2023-04-24T10:31:02;2.53;;;2.33;;
14592;SDS011;7383;52.354;9.756;2023-04-24T10:33:37;2.20;;;2.10;;
14592;SDS011;7383;52.354;9.756;2023-04-24T10:36:12;2.22;;;2.13;;
14592;SDS011;7383;52.354;9.756;2023-04-24T10:38:42;2.20;;;2.10;;
14592;SDS011;7383;52.354;9.756;2023-04-24T10:44:06;2.08;;;1.98;;
14592;SDS011;7383;52.354;9.756;2023-04-24T10:46:38;2.00;;;1.90;;
14592;SDS011;7383;52.354;9.756;2023-04-24T10:49:27;2.05;;;1.80;;
14592;SDS011;7383;52.354;9.756;2023-04-24T11:26:17;1.77;;;1.67;;
14592;SDS011;7383;52.354;9.756;2023-04-24T11:29:09;1.58;;;1.48;;
14592;SDS011;7383;52.354;9.756;2023-04-24T11:35:03;1.60;;;1.50;;
14592;SDS011;7383;52.354;9.756;2023-04-24T11:37:58;1.40;;;1.30;;
14592;SDS011;7383;52.354;9.756;2023-04-24T11:50:46;1.40;;;1.40;;
14592;SDS011;7383;52.354;9.756;2023-04-24T11:53:21;1.13;;;1.10;;
14592;SDS011;7383;52.354;9.756;2023-04-24T11:59:38;0.55;;;0.55;;
14592;SDS011;7383;52.354;9.756;2023-04-24T12:02:19;0.85;;;0.82;;
14592;SDS011;7383;52.354;9.756;2023-04-24T12:05:40;0.70;;;0.70;;
14592;SDS011;7383;52.354;9.756;2023-04-24T12:54:37;0.80;;;0.80;;
14592;SDS011;7383;52.354;9.756;2023-04-24T13:12:36;0.70;;;0.70;;
14592;SDS011;7383;52.354;9.756;2023-04-24T13:42:10;0.70;;;0.70;;
14592;SDS011;7383;52.354;9.756;2023-04-24T13:44:37;0.60;;;0.60;;
14592;SDS011;7383;52.354;9.756;2023-04-24T13:47:14;0.70;;;0.70;;
14592;SDS011;7383;52.354;9.756;2023-04-24T13:52:52;0.43;;;0.43;;
14592;SDS011;7383;52.354;9.756;2023-04-24T14:32:49;1.00;;;1.00;;
14592;SDS011;7383;52.354;9.756;2023-04-24T14:35:35;1.02;;;1.02;;
14592;SDS011;7383;52.354;9.756;2023-04-24T14:39:13;1.02;;;1.02;;
14592;SDS011;7383;52.354;9.756;2023-04-24T14:45:19;1.10;;;1.10;;
14592;SDS011;7383;52.354;9.756;2023-04-24T14:58:29;1.63;;;1.50;;
14592;SDS011;7383;52.354;9.756;2023-04-24T15:01:10;1.50;;;1.40;;
14592;SDS011;7383;52.354;9.756;2023-04-24T15:03:45;2.30;;;2.00;;
14592;SDS011;7383;52.354;9.756;2023-04-24T15:06:29;1.80;;;1.70;;
14592;SDS011;7383;52.354;9.756;2023-04-24T15:08:56;2.33;;;1.80;;
14592;SDS011;7383;52.354;9.756;2023-04-24T15:11:23;1.80;;;1.70;;
14592;SDS011;7383;52.354;9.756;2023-04-24T15:13:58;2.13;;;2.03;;
14592;SDS011;7383;52.354;9.756;2023-04-24T15:16:29;2.17;;;2.08;;
14592;SDS011;7383;52.354;9.756;2023-04-24T15:18:58;2.10;;;1.90;;
14592;SDS011;7383;52.354;9.756;2023-04-24T15:21:25;2.88;;;2.45;;
14592;SDS011;7383;52.354;9.756;2023-04-24T15:24:22;2.70;;;2.50;;
14592;SDS011;7383;52.354;9.756;2023-04-24T15:30:22;2.22;;;2.08;;
14592;SDS011;7383;52.354;9.756;2023-04-24T15:36:42;4.05;;;2.17;;
14592;SDS011;7383;52.354;9.756;2023-04-24T15:39:29;2.40;;;2.20;;
14592;SDS011;7383;52.354;9.756;2023-04-24T15:45:06;2.08;;;1.98;;
14592;SDS011;7383;52.354;9.756;2023-04-24T15:47:35;2.22;;;2.10;;
14592;SDS011;7383;52.354;9.756;2023-04-24T15:50:02;2.30;;;2.20;;
14592;SDS011;7383;52.354;9.756;2023-04-24T15:52:36;3.53;;;2.47;;
14592;SDS011;7383;52.354;9.756;2023-04-24T15:55:11;3.55;;;2.13;;
14592;SDS011;7383;52.354;9.756;2023-04-24T15:57:53;2.72;;;2.53;;
14592;SDS011;7383;52.354;9.756;2023-04-24T16:00:24;3.33;;;2.70;;
14592;SDS011;7383;52.354;9.756;2023-04-24T16:03:02;3.13;;;2.53;;
14592;SDS011;7383;52.354;9.756;2023-04-24T16:05:29;3.42;;;2.58;;
14592;SDS011;7383;52.354;9.756;2023-04-24T16:08:00;2.97;;;2.65;;
14592;SDS011;7383;52.354;9.756;2023-04-24T16:10:38;2.88;;;2.67;;
14592;SDS011;7383;52.354;9.756;2023-04-24T16:13:05;2.50;;;2.30;;
14592;SDS011;7383;52.354;9.756;2023-04-24T16:15:34;3.15;;;2.85;;
14592;SDS011;7383;52.354;9.756;2023-04-24T16:18:03;2.75;;;2.55;;
14592;SDS011;7383;52.354;9.756;2023-04-24T16:20:31;2.88;;;2.47;;
14592;SDS011;7383;52.354;9.756;2023-04-24T16:22:58;3.33;;;2.50;;
14592;SDS011;7383;52.354;9.756;2023-04-24T16:25:26;3.00;;;2.70;;
14592;SDS011;7383;52.354;9.756;2023-04-24T16:27:52;3.88;;;2.75;;
14592;SDS011;7383;52.354;9.756;2023-04-24T16:30:21;3.13;;;2.67;;
14592;SDS011;7383;52.354;9.756;2023-04-24T16:32:49;2.95;;;2.70;;
14592;SDS011;7383;52.354;9.756;2023-04-24T16:35:17;2.72;;;2.53;;
14592;SDS011;7383;52.354;9.756;2023-04-24T16:37:44;2.67;;;2.42;;
14592;SDS011;7383;52.354;9.756;2023-04-24T16:40:13;3.42;;;2.70;;
14592;SDS011;7383;52.354;9.756;2023-04-24T16:42:39;3.10;;;2.80;;
14592;SDS011;7383;52.354;9.756;2023-04-24T16:45:09;3.95;;;2.70;;
14592;SDS011;7383;52.354;9.756;2023-04-24T16:47:36;3.28;;;2.60;;
14592;SDS011;7383;52.354;9.756;2023-04-24T16:50:03;3.28;;;2.50;;
14592;SDS011;7383;52.354;9.756;2023-04-24T16:52:37;3.08;;;2.35;;
14592;SDS011;7383;52.354;9.756;2023-04-24T16:55:04;3.25;;;2.30;;
14592;SDS011;7383;52.354;9.756;2023-04-24T16:57:34;2.47;;;2.20;;
14592;SDS011;7383;52.354;9.756;2023-04-24T17:00:02;2.20;;;2.10;;
14592;SDS011;7383;52.354;9.756;2023-04-24T17:02:30;2.53;;;2.05;;
14592;SDS011;7383;52.354;9.756;2023-04-24T17:05:06;2.50;;;2.00;;
14592;SDS011;7383;52.354;9.756;2023-04-24T17:07:35;1.63;;;1.52;;
14592;SDS011;7383;52.354;9.756;2023-04-24T17:13:37;1.67;;;1.58;;
14592;SDS011;7383;52.354;9.756;2023-04-24T17:16:39;1.85;;;1.75;;
14592;SDS011;7383;52.354;9.756;2023-04-24T17:29:44;1.70;;;1.60;;
14592;SDS011;7383;52.354;9.756;2023-04-24T17:32:21;2.10;;;1.65;;
14592;SDS011;7383;52.354;9.756;2023-04-24T17:35:01;1.95;;;1.83;;
14592;SDS011;7383;52.354;9.756;2023-04-24T17:37:50;2.05;;;1.95;;
14592;SDS011;7383;52.354;9.756;2023-04-24T17:40:48;1.98;;;1.77;;
14592;SDS011;7383;52.354;9.756;2023-04-24T18:07:13;1.67;;;1.58;;
14592;SDS011;7383;52.354;9.756;2023-04-24T18:09:40;1.73;;;1.63;;
14592;SDS011;7383;52.354;9.756;2023-04-24T18:12:07;1.73;;;1.63;;
14592;SDS011;7383;52.354;9.756;2023-04-24T18:14:36;1.55;;;1.45;;
14592;SDS011;7383;52.354;9.756;2023-04-24T18:17:05;1.65;;;1.55;;
14592;SDS011;7383;52.354;9.756;2023-04-24T18:19:32;2.03;;;1.63;;
14592;SDS011;7383;52.354;9.756;2023-04-24T18:22:01;1.80;;;1.70;;
14592;SDS011;7383;52.354;9.756;2023-04-24T18:24:30;1.70;;;1.60;;
14592;SDS011;7383;52.354;9.756;2023-04-24T18:26:56;1.83;;;1.60;;
14592;SDS011;7383;52.354;9.756;2023-04-24T18:29:23;1.98;;;1.80;;
14592;SDS011;7383;52.354;9.756;2023-04-24T18:31:50;2.10;;;1.70;;
14592;SDS011;7383;52.354;9.756;2023-04-24T18:34:21;1.83;;;1.58;;
14592;SDS011;7383;52.354;9.756;2023-04-24T18:36:49;1.63;;;1.52;;
14592;SDS011;7383;52.354;9.756;2023-04-24T18:39:18;2.03;;;1.92;;
14592;SDS011;7383;52.354;9.756;2023-04-24T18:42:09;2.03;;;1.80;;
14592;SDS011;7383;52.354;9.756;2023-04-24T18:44:36;1.50;;;1.40;;
14592;SDS011;7383;52.354;9.756;2023-04-24T18:47:05;1.80;;;1.70;;
14592;SDS011;7383;52.354;9.756;2023-04-24T18:49:32;1.70;;;1.60;;
14592;SDS011;7383;52.354;9.756;2023-04-24T18:52:01;1.50;;;1.40;;
14592;SDS011;7383;52.354;9.756;2023-04-24T18:54:27;1.60;;;1.50;;
14592;SDS011;7383;52.354;9.756;2023-04-24T18:56:54;1.85;;;1.70;;
14592;SDS011;7383;52.354;9.756;2023-04-24T18:59:22;1.90;;;1.80;;
14592;SDS011;7383;52.354;9.756;2023-04-24T19:01:51;1.63;;;1.52;;
14592;SDS011;7383;52.354;9.756;2023-04-24T19:04:18;1.83;;;1.73;;
14592;SDS011;7383;52.354;9.756;2023-04-24T19:06:46;1.55;;;1.45;;
14592;SDS011;7383;52.354;9.756;2023-04-24T19:09:12;1.63;;;1.50;;
14592;SDS011;7383;52.354;9.756;2023-04-24T19:11:41;1.77;;;1.67;;
14592;SDS011;7383;52.354;9.756;2023-04-24T19:14:08;1.77;;;1.67;;
14592;SDS011;7383;52.354;9.756;2023-04-24T19:16:41;2.03;;;1.88;;
14592;SDS011;7383;52.354;9.756;2023-04-24T19:19:08;1.75;;;1.65;;
14592;SDS011;7383;52.354;9.756;2023-04-24T19:21:35;1.60;;;1.50;;
14592;SDS011;7383;52.354;9.756;2023-04-24T19:24:02;1.80;;;1.70;;
14592;SDS011;7383;52.354;9.756;2023-04-24T19:26:29;1.75;;;1.65;;
14592;SDS011;7383;52.354;9.756;2023-04-24T19:28:56;2.00;;;1.90;;
14592;SDS011;7383;52.354;9.756;2023-04-24T19:31:24;1.70;;;1.60;;
14592;SDS011;7383;52.354;9.756;2023-04-24T19:33:55;1.80;;;1.70;;
14592;SDS011;7383;52.354;9.756;2023-04-24T19:36:22;1.77;;;1.67;;
14592;SDS011;7383;52.354;9.756;2023-04-24T19:38:48;2.05;;;1.88;;
14592;SDS011;7383;52.354;9.756;2023-04-24T19:41:17;1.80;;;1.70;;
14592;SDS011;7383;52.354;9.756;2023-04-24T19:43:44;2.25;;;1.50;;
14592;SDS011;7383;52.354;9.756;2023-04-24T19:46:11;2.72;;;1.92;;
14592;SDS011;7383;52.354;9.756;2023-04-24T19:48:38;2.17;;;1.98;;
14592;SDS011;7383;52.354;9.756;2023-04-24T19:51:06;2.30;;;1.95;;
14592;SDS011;7383;52.354;9.756;2023-04-24T19:53:33;2.10;;;1.80;;
14592;SDS011;7383;52.354;9.756;2023-04-24T19:55:59;2.55;;;2.13;;
14592;SDS011;7383;52.354;9.756;2023-04-24T19:58:30;2.85;;;2.00;;
14592;SDS011;7383;52.354;9.756;2023-04-24T20:00:57;2.05;;;1.85;;
14592;SDS011;7383;52.354;9.756;2023-04-24T20:03:23;1.83;;;1.73;;
14592;SDS011;7383;52.354;9.756;2023-04-24T20:05:50;2.78;;;1.67;;
14592;SDS011;7383;52.354;9.756;2023-04-24T20:08:20;2.17;;;1.95;;
14592;SDS011;7383;52.354;9.756;2023-04-24T20:10:51;2.00;;;1.90;;
14592;SDS011;7383;52.354;9.756;2023-04-24T20:13:18;2.55;;;2.33;;
14592;SDS011;7383;52.354;9.756;2023-04-24T20:15:45;2.97;;;2.42;;
14592;SDS011;7383;52.354;9.756;2023-04-24T20:18:12;2.38;;;2.15;;
14592;SDS011;7383;52.354;9.756;2023-04-24T20:20:39;2.28;;;1.95;;
14592;SDS011;7383;52.354;9.756;2023-04-24T20:23:07;2.60;;;2.30;;
14592;SDS011;7383;52.354;9.756;2023-04-24T20:25:38;3.05;;;2.35;;
14592;SDS011;7383;52.354;9.756;2023-04-24T20:28:07;2.78;;;2.10;;
14592;SDS011;7383;52.354;9.756;2023-04-24T20:30:34;2.63;;;2.42;;
14592;SDS011;7383;52.354;9.756;2023-04-24T20:33:02;2.20;;;2.10;;
14592;SDS011;7383;52.354;9.756;2023-04-24T20:35:29;2.53;;;2.33;;
14592;SDS011;7383;52.354;9.756;2023-04-24T20:37:55;2.83;;;2.15;;
14592;SDS011;7383;52.354;9.756;2023-04-24T20:40:23;2.22;;;1.88;;
14592;SDS011;7383;52.354;9.756;2023-04-24T20:42:51;2.63;;;2.35;;
14592;SDS011;7383;52.354;9.756;2023-04-24T20:45:19;3.00;;;2.40;;
14592;SDS011;7383;52.354;9.756;2023-04-24T20:47:48;4.93;;;2.67;;
14592;SDS011;7383;52.354;9.756;2023-04-24T20:50:16;2.55;;;2.35;;
14592;SDS011;7383;52.354;9.756;2023-04-24T20:52:42;3.35;;;2.60;;
14592;SDS011;7383;52.354;9.756;2023-04-24T20:55:09;2.30;;;2.10;;
14592;SDS011;7383;52.354;9.756;2023-04-24T20:57:35;3.47;;;2.47;;
14592;SDS011;7383;52.354;9.756;2023-04-24T21:00:05;2.47;;;2.20;;
14592;SDS011;7383;52.354;9.756;2023-04-24T21:02:33;3.22;;;2.70;;